sensor_id;sensor_type;location;lat;lon;timestamp;temperature;humidity
20670;DHT22;10494;50.868;4.180;2023-06-14T00:01:57;20.30;86.60
20670;DHT22;10494;50.868;4.180;2023-06-14T00:04:23;20.20;87.20
20670;DHT22;10494;50.868;4.180;2023-06-14T00:06:50;20.20;86.70
20670;DHT22;10494;50.868;4.180;2023-06-14T00:09:16;20.20;87.20
20670;DHT22;10494;50.868;4.180;2023-06-14T00:11:45;20.20;87.50
20670;DHT22;10494;50.868;4.180;2023-06-14T00:14:10;20.20;87.90
20670;DHT22;10494;50.868;4.180;2023-06-14T00:16:36;20.20;88.70
20670;DHT22;10494;50.868;4.180;2023-06-14T00:19:04;20.30;89.30
20670;DHT22;10494;50.868;4.180;2023-06-14T00:21:32;20.20;89.00
20670;DHT22;10494;50.868;4.180;2023-06-14T00:23:58;20.20;89.00
20670;DHT22;10494;50.868;4.180;2023-06-14T00:26:25;20.10;90.00
20670;DHT22;10494;50.868;4.180;2023-06-14T00:28:52;20.10;90.40
20670;DHT22;10494;50.868;4.180;2023-06-14T00:31:18;20.10;90.80
20670;DHT22;10494;50.868;4.180;2023-06-14T00:33:44;20.10;91.40
20670;DHT22;10494;50.868;4.180;2023-06-14T00:36:10;20.00;92.00
20670;DHT22;10494;50.868;4.180;2023-06-14T00:38:36;20.00;92.70
20670;DHT22;10494;50.868;4.180;2023-06-14T00:41:02;19.90;93.30
20670;DHT22;10494;50.868;4.180;2023-06-14T00:43:28;19.90;93.80
20670;DHT22;10494;50.868;4.180;2023-06-14T00:45:53;19.90;94.10
20670;DHT22;10494;50.868;4.180;2023-06-14T00:48:20;19.90;94.50
20670;DHT22;10494;50.868;4.180;2023-06-14T00:50:46;19.80;94.70
20670;DHT22;10494;50.868;4.180;2023-06-14T00:53:17;19.80;94.70
20670;DHT22;10494;50.868;4.180;2023-06-14T00:55:43;19.80;94.90
20670;DHT22;10494;50.868;4.180;2023-06-14T00:58:10;19.80;95.20
20670;DHT22;10494;50.868;4.180;2023-06-14T01:00:36;19.70;94.70
20670;DHT22;10494;50.868;4.180;2023-06-14T01:03:02;19.60;95.20
20670;DHT22;10494;50.868;4.180;2023-06-14T01:05:29;19.60;95.40
20670;DHT22;10494;50.868;4.180;2023-06-14T01:15:35;19.90;94.30
20670;DHT22;10494;50.868;4.180;2023-06-14T01:18:03;19.90;94.40
20670;DHT22;10494;50.868;4.180;2023-06-14T01:20:32;19.80;94.60
20670;DHT22;10494;50.868;4.180;2023-06-14T01:22:59;19.80;95.00
20670;DHT22;10494;50.868;4.180;2023-06-14T01:25:25;19.80;95.50
20670;DHT22;10494;50.868;4.180;2023-06-14T01:28:03;19.80;95.60
20670;DHT22;10494;50.868;4.180;2023-06-14T01:30:44;20.00;94.70
20670;DHT22;10494;50.868;4.180;2023-06-14T01:33:21;20.00;94.60
20670;DHT22;10494;50.868;4.180;2023-06-14T01:35:51;19.90;94.60
20670;DHT22;10494;50.868;4.180;2023-06-14T01:38:19;19.80;95.30
20670;DHT22;10494;50.868;4.180;2023-06-14T01:40:47;19.80;96.10
20670;DHT22;10494;50.868;4.180;2023-06-14T01:43:14;19.70;96.50
20670;DHT22;10494;50.868;4.180;2023-06-14T01:45:42;19.80;96.40
20670;DHT22;10494;50.868;4.180;2023-06-14T01:48:09;19.70;96.80
20670;DHT22;10494;50.868;4.180;2023-06-14T01:50:35;19.60;97.40
20670;DHT22;10494;50.868;4.180;2023-06-14T01:53:01;19.50;98.20
20670;DHT22;10494;50.868;4.180;2023-06-14T01:55:27;19.50;98.10
20670;DHT22;10494;50.868;4.180;2023-06-14T01:57:53;19.60;97.90
20670;DHT22;10494;50.868;4.180;2023-06-14T02:00:22;19.70;98.10
20670;DHT22;10494;50.868;4.180;2023-06-14T02:02:48;19.80;97.50
20670;DHT22;10494;50.868;4.180;2023-06-14T02:05:14;19.80;97.40
20670;DHT22;10494;50.868;4.180;2023-06-14T02:07:44;19.80;97.00
20670;DHT22;10494;50.868;4.180;2023-06-14T02:10:11;19.80;96.80
20670;DHT22;10494;50.868;4.180;2023-06-14T02:12:37;19.90;97.00
20670;DHT22;10494;50.868;4.180;2023-06-14T02:15:03;19.90;96.60
20670;DHT22;10494;50.868;4.180;2023-06-14T02:17:29;19.90;96.70
20670;DHT22;10494;50.868;4.180;2023-06-14T02:19:55;19.70;97.10
20670;DHT22;10494;50.868;4.180;2023-06-14T02:22:23;19.60;97.90
20670;DHT22;10494;50.868;4.180;2023-06-14T02:24:48;19.60;98.50
20670;DHT22;10494;50.868;4.180;2023-06-14T02:27:15;19.50;99.30
20670;DHT22;10494;50.868;4.180;2023-06-14T02:29:42;19.60;99.40
20670;DHT22;10494;50.868;4.180;2023-06-14T02:32:08;19.40;99.90
20670;DHT22;10494;50.868;4.180;2023-06-14T02:34:34;19.40;99.90
20670;DHT22;10494;50.868;4.180;2023-06-14T02:37:01;19.40;99.90
20670;DHT22;10494;50.868;4.180;2023-06-14T02:39:28;19.50;99.90
20670;DHT22;10494;50.868;4.180;2023-06-14T02:41:54;19.60;99.90
20670;DHT22;10494;50.868;4.180;2023-06-14T02:44:24;19.60;99.90
20670;DHT22;10494;50.868;4.180;2023-06-14T02:46:54;19.50;99.90
20670;DHT22;10494;50.868;4.180;2023-06-14T02:49:22;19.40;99.90
20670;DHT22;10494;50.868;4.180;2023-06-14T02:51:48;19.30;99.90
20670;DHT22;10494;50.868;4.180;2023-06-14T02:54:14;19.30;99.90
20670;DHT22;10494;50.868;4.180;2023-06-14T02:56:40;19.40;99.90
20670;DHT22;10494;50.868;4.180;2023-06-14T02:59:06;19.40;99.90
20670;DHT22;10494;50.868;4.180;2023-06-14T03:01:33;19.30;99.90
20670;DHT22;10494;50.868;4.180;2023-06-14T03:04:07;19.40;99.90
20670;DHT22;10494;50.868;4.180;2023-06-14T03:06:33;19.50;99.90
20670;DHT22;10494;50.868;4.180;2023-06-14T03:09:00;19.30;99.90
20670;DHT22;10494;50.868;4.180;2023-06-14T03:11:30;19.40;99.90
20670;DHT22;10494;50.868;4.180;2023-06-14T03:13:56;19.30;99.90
20670;DHT22;10494;50.868;4.180;2023-06-14T03:16:24;19.30;99.90
20670;DHT22;10494;50.868;4.180;2023-06-14T03:18:56;19.30;99.90
20670;DHT22;10494;50.868;4.180;2023-06-14T03:21:22;19.20;99.90
20670;DHT22;10494;50.868;4.180;2023-06-14T03:23:48;19.30;99.90
20670;DHT22;10494;50.868;4.180;2023-06-14T03:26:14;19.30;99.90
20670;DHT22;10494;50.868;4.180;2023-06-14T03:28:49;19.30;99.90
20670;DHT22;10494;50.868;4.180;2023-06-14T03:31:15;19.10;99.90
20670;DHT22;10494;50.868;4.180;2023-06-14T03:33:42;19.10;99.90
20670;DHT22;10494;50.868;4.180;2023-06-14T03:36:08;19.10;99.90
20670;DHT22;10494;50.868;4.180;2023-06-14T03:38:37;19.00;99.90
20670;DHT22;10494;50.868;4.180;2023-06-14T03:41:03;19.00;99.90
20670;DHT22;10494;50.868;4.180;2023-06-14T03:43:28;19.20;99.90
20670;DHT22;10494;50.868;4.180;2023-06-14T03:45:55;19.30;99.90
20670;DHT22;10494;50.868;4.180;2023-06-14T03:48:21;19.20;99.90
20670;DHT22;10494;50.868;4.180;2023-06-14T03:50:47;19.30;99.90
20670;DHT22;10494;50.868;4.180;2023-06-14T03:53:13;19.30;99.90
20670;DHT22;10494;50.868;4.180;2023-06-14T03:55:38;19.40;99.90
20670;DHT22;10494;50.868;4.180;2023-06-14T03:58:05;19.50;99.90
20670;DHT22;10494;50.868;4.180;2023-06-14T04:00:31;19.30;99.90
20670;DHT22;10494;50.868;4.180;2023-06-14T04:02:57;19.30;99.90
20670;DHT22;10494;50.868;4.180;2023-06-14T04:05:23;19.20;99.90
20670;DHT22;10494;50.868;4.180;2023-06-14T04:07:52;19.10;99.90
20670;DHT22;10494;50.868;4.180;2023-06-14T04:10:21;19.00;99.90
20670;DHT22;10494;50.868;4.180;2023-06-14T04:12:47;18.90;99.90
20670;DHT22;10494;50.868;4.180;2023-06-14T04:15:13;18.90;99.90
20670;DHT22;10494;50.868;4.180;2023-06-14T04:17:39;18.80;99.90
20670;DHT22;10494;50.868;4.180;2023-06-14T04:20:05;18.90;99.90
20670;DHT22;10494;50.868;4.180;2023-06-14T04:22:33;19.00;99.90
20670;DHT22;10494;50.868;4.180;2023-06-14T04:25:02;19.10;99.90
20670;DHT22;10494;50.868;4.180;2023-06-14T04:27:28;19.20;99.90
20670;DHT22;10494;50.868;4.180;2023-06-14T04:29:56;19.10;99.90
20670;DHT22;10494;50.868;4.180;2023-06-14T04:32:26;19.30;99.90
20670;DHT22;10494;50.868;4.180;2023-06-14T04:34:59;19.30;99.90
20670;DHT22;10494;50.868;4.180;2023-06-14T04:37:27;19.40;99.90
20670;DHT22;10494;50.868;4.180;2023-06-14T04:39:55;19.40;99.90
20670;DHT22;10494;50.868;4.180;2023-06-14T04:42:22;19.40;99.90
20670;DHT22;10494;50.868;4.180;2023-06-14T04:44:51;19.40;99.90
20670;DHT22;10494;50.868;4.180;2023-06-14T04:47:17;19.50;99.90
20670;DHT22;10494;50.868;4.180;2023-06-14T04:49:43;19.50;99.90
20670;DHT22;10494;50.868;4.180;2023-06-14T04:52:10;19.60;99.90
20670;DHT22;10494;50.868;4.180;2023-06-14T04:54:38;19.60;99.90
20670;DHT22;10494;50.868;4.180;2023-06-14T04:57:10;19.60;99.90
20670;DHT22;10494;50.868;4.180;2023-06-14T04:59:43;19.60;99.90
20670;DHT22;10494;50.868;4.180;2023-06-14T05:02:10;19.70;99.90
20670;DHT22;10494;50.868;4.180;2023-06-14T05:04:37;20.00;99.90
20670;DHT22;10494;50.868;4.180;2023-06-14T05:07:07;20.10;99.90
20670;DHT22;10494;50.868;4.180;2023-06-14T05:09:33;20.00;99.90
20670;DHT22;10494;50.868;4.180;2023-06-14T05:11:59;19.90;99.90
20670;DHT22;10494;50.868;4.180;2023-06-14T05:14:25;19.90;99.90
20670;DHT22;10494;50.868;4.180;2023-06-14T05:16:52;20.10;99.90
20670;DHT22;10494;50.868;4.180;2023-06-14T05:19:18;20.00;99.90
20670;DHT22;10494;50.868;4.180;2023-06-14T05:21:46;20.00;99.90
20670;DHT22;10494;50.868;4.180;2023-06-14T05:24:13;20.20;99.90
20670;DHT22;10494;50.868;4.180;2023-06-14T05:26:39;20.30;99.90
20670;DHT22;10494;50.868;4.180;2023-06-14T05:29:05;20.40;99.90
20670;DHT22;10494;50.868;4.180;2023-06-14T05:31:31;20.40;99.90
20670;DHT22;10494;50.868;4.180;2023-06-14T05:33:57;20.30;99.90
20670;DHT22;10494;50.868;4.180;2023-06-14T05:36:22;20.40;99.90
20670;DHT22;10494;50.868;4.180;2023-06-14T05:38:48;20.60;99.70
20670;DHT22;10494;50.868;4.180;2023-06-14T05:41:14;20.60;99.90
20670;DHT22;10494;50.868;4.180;2023-06-14T05:43:40;20.50;99.90
20670;DHT22;10494;50.868;4.180;2023-06-14T05:46:06;20.60;99.90
20670;DHT22;10494;50.868;4.180;2023-06-14T05:48:31;20.60;99.90
20670;DHT22;10494;50.868;4.180;2023-06-14T05:50:58;20.70;99.90
20670;DHT22;10494;50.868;4.180;2023-06-14T05:53:24;20.90;99.40
20670;DHT22;10494;50.868;4.180;2023-06-14T05:55:50;21.20;98.50
20670;DHT22;10494;50.868;4.180;2023-06-14T05:58:20;21.30;97.90
20670;DHT22;10494;50.868;4.180;2023-06-14T06:00:46;21.20;98.20
20670;DHT22;10494;50.868;4.180;2023-06-14T06:03:12;21.20;97.90
20670;DHT22;10494;50.868;4.180;2023-06-14T06:05:39;21.30;97.30
20670;DHT22;10494;50.868;4.180;2023-06-14T06:08:07;21.30;97.60
20670;DHT22;10494;50.868;4.180;2023-06-14T06:10:33;21.40;97.60
20670;DHT22;10494;50.868;4.180;2023-06-14T06:12:59;21.50;97.50
20670;DHT22;10494;50.868;4.180;2023-06-14T06:15:24;21.50;97.60
20670;DHT22;10494;50.868;4.180;2023-06-14T06:17:50;21.60;96.90
20670;DHT22;10494;50.868;4.180;2023-06-14T06:20:16;21.80;96.80
20670;DHT22;10494;50.868;4.180;2023-06-14T06:22:43;21.90;95.70
20670;DHT22;10494;50.868;4.180;2023-06-14T06:25:08;22.00;96.00
20670;DHT22;10494;50.868;4.180;2023-06-14T06:27:34;22.00;95.60
20670;DHT22;10494;50.868;4.180;2023-06-14T06:30:04;22.10;95.70
20670;DHT22;10494;50.868;4.180;2023-06-14T06:32:30;22.20;96.10
20670;DHT22;10494;50.868;4.180;2023-06-14T06:34:56;22.30;95.60
20670;DHT22;10494;50.868;4.180;2023-06-14T06:37:22;22.50;94.40
20670;DHT22;10494;50.868;4.180;2023-06-14T06:39:48;22.80;93.50
20670;DHT22;10494;50.868;4.180;2023-06-14T06:42:17;22.90;93.00
20670;DHT22;10494;50.868;4.180;2023-06-14T06:44:42;22.80;92.60
20670;DHT22;10494;50.868;4.180;2023-06-14T06:47:08;22.90;90.90
20670;DHT22;10494;50.868;4.180;2023-06-14T06:49:35;23.20;89.70
20670;DHT22;10494;50.868;4.180;2023-06-14T06:52:02;23.30;88.40
20670;DHT22;10494;50.868;4.180;2023-06-14T06:54:37;23.60;85.10
20670;DHT22;10494;50.868;4.180;2023-06-14T06:57:03;23.80;86.10
20670;DHT22;10494;50.868;4.180;2023-06-14T06:59:29;24.50;83.70
20670;DHT22;10494;50.868;4.180;2023-06-14T07:01:56;25.20;78.20
20670;DHT22;10494;50.868;4.180;2023-06-14T07:04:21;26.00;74.50
20670;DHT22;10494;50.868;4.180;2023-06-14T07:06:47;26.60;69.90
20670;DHT22;10494;50.868;4.180;2023-06-14T07:09:14;27.40;66.10
20670;DHT22;10494;50.868;4.180;2023-06-14T07:11:43;28.60;63.00
20670;DHT22;10494;50.868;4.180;2023-06-14T07:14:09;29.80;59.20
20670;DHT22;10494;50.868;4.180;2023-06-14T07:16:36;30.90;55.30
20670;DHT22;10494;50.868;4.180;2023-06-14T07:19:03;31.90;52.30
20670;DHT22;10494;50.868;4.180;2023-06-14T07:21:29;32.90;50.10
20670;DHT22;10494;50.868;4.180;2023-06-14T07:23:55;33.50;47.30
20670;DHT22;10494;50.868;4.180;2023-06-14T07:26:22;34.30;45.50
20670;DHT22;10494;50.868;4.180;2023-06-14T07:28:48;34.60;42.20
20670;DHT22;10494;50.868;4.180;2023-06-14T07:31:15;35.10;40.70
20670;DHT22;10494;50.868;4.180;2023-06-14T07:33:42;35.50;39.90
20670;DHT22;10494;50.868;4.180;2023-06-14T07:36:11;36.00;38.70
20670;DHT22;10494;50.868;4.180;2023-06-14T07:38:39;35.80;38.80
20670;DHT22;10494;50.868;4.180;2023-06-14T07:41:06;36.30;38.60
20670;DHT22;10494;50.868;4.180;2023-06-14T07:43:32;37.00;36.60
20670;DHT22;10494;50.868;4.180;2023-06-14T07:45:58;37.40;34.40
20670;DHT22;10494;50.868;4.180;2023-06-14T07:48:24;37.30;34.60
20670;DHT22;10494;50.868;4.180;2023-06-14T07:50:49;37.10;35.00
20670;DHT22;10494;50.868;4.180;2023-06-14T07:53:16;36.90;35.30
20670;DHT22;10494;50.868;4.180;2023-06-14T07:55:41;35.60;37.60
20670;DHT22;10494;50.868;4.180;2023-06-14T07:58:08;32.90;38.40
20670;DHT22;10494;50.868;4.180;2023-06-14T08:00:34;30.00;44.90
20670;DHT22;10494;50.868;4.180;2023-06-14T08:03:00;29.70;45.60
20670;DHT22;10494;50.868;4.180;2023-06-14T08:05:27;30.40;46.00
20670;DHT22;10494;50.868;4.180;2023-06-14T08:07:53;32.20;44.40
20670;DHT22;10494;50.868;4.180;2023-06-14T08:10:20;34.20;41.40
20670;DHT22;10494;50.868;4.180;2023-06-14T08:12:49;33.20;39.60
20670;DHT22;10494;50.868;4.180;2023-06-14T08:15:18;34.40;39.60
20670;DHT22;10494;50.868;4.180;2023-06-14T08:17:44;35.60;38.00
20670;DHT22;10494;50.868;4.180;2023-06-14T08:20:11;36.00;36.80
20670;DHT22;10494;50.868;4.180;2023-06-14T08:22:37;36.30;37.50
20670;DHT22;10494;50.868;4.180;2023-06-14T08:25:04;35.30;37.80
20670;DHT22;10494;50.868;4.180;2023-06-14T08:27:30;35.70;38.10
20670;DHT22;10494;50.868;4.180;2023-06-14T08:29:56;31.60;40.60
20670;DHT22;10494;50.868;4.180;2023-06-14T08:32:22;32.50;42.10
20670;DHT22;10494;50.868;4.180;2023-06-14T08:34:48;33.30;40.60
20670;DHT22;10494;50.868;4.180;2023-06-14T08:37:14;32.70;40.70
20670;DHT22;10494;50.868;4.180;2023-06-14T08:39:40;32.80;40.00
20670;DHT22;10494;50.868;4.180;2023-06-14T08:42:07;31.40;43.00
20670;DHT22;10494;50.868;4.180;2023-06-14T08:44:34;32.70;41.30
20670;DHT22;10494;50.868;4.180;2023-06-14T08:47:00;34.10;39.10
20670;DHT22;10494;50.868;4.180;2023-06-14T08:49:29;34.60;37.70
20670;DHT22;10494;50.868;4.180;2023-06-14T08:52:00;35.60;36.30
20670;DHT22;10494;50.868;4.180;2023-06-14T08:54:29;36.40;35.70
20670;DHT22;10494;50.868;4.180;2023-06-14T08:56:59;32.50;37.10
20670;DHT22;10494;50.868;4.180;2023-06-14T08:59:29;32.00;40.40
20670;DHT22;10494;50.868;4.180;2023-06-14T09:01:56;33.20;39.60
20670;DHT22;10494;50.868;4.180;2023-06-14T09:04:25;34.00;38.40
20670;DHT22;10494;50.868;4.180;2023-06-14T09:06:55;35.30;38.40
20670;DHT22;10494;50.868;4.180;2023-06-14T09:09:21;32.40;39.60
20670;DHT22;10494;50.868;4.180;2023-06-14T09:11:51;33.00;40.70
20670;DHT22;10494;50.868;4.180;2023-06-14T09:14:23;31.90;38.10
20670;DHT22;10494;50.868;4.180;2023-06-14T09:16:52;32.10;40.70
20670;DHT22;10494;50.868;4.180;2023-06-14T09:19:24;31.60;41.90
20670;DHT22;10494;50.868;4.180;2023-06-14T09:21:50;31.70;42.20
20670;DHT22;10494;50.868;4.180;2023-06-14T09:24:18;29.70;43.40
20670;DHT22;10494;50.868;4.180;2023-06-14T09:26:47;29.10;45.70
20670;DHT22;10494;50.868;4.180;2023-06-14T09:29:13;29.10;47.90
20670;DHT22;10494;50.868;4.180;2023-06-14T09:31:39;30.70;45.00
20670;DHT22;10494;50.868;4.180;2023-06-14T09:34:05;31.80;42.70
20670;DHT22;10494;50.868;4.180;2023-06-14T09:36:32;30.20;43.30
20670;DHT22;10494;50.868;4.180;2023-06-14T09:39:01;29.90;46.00
20670;DHT22;10494;50.868;4.180;2023-06-14T09:41:40;31.10;45.00
20670;DHT22;10494;50.868;4.180;2023-06-14T09:44:08;32.30;43.80
20670;DHT22;10494;50.868;4.180;2023-06-14T09:46:36;30.90;43.80
20670;DHT22;10494;50.868;4.180;2023-06-14T09:49:03;29.50;44.70
20670;DHT22;10494;50.868;4.180;2023-06-14T09:51:52;29.70;45.00
20670;DHT22;10494;50.868;4.180;2023-06-14T09:54:22;31.00;44.80
20670;DHT22;10494;50.868;4.180;2023-06-14T09:56:51;32.00;43.10
20670;DHT22;10494;50.868;4.180;2023-06-14T09:59:21;32.40;42.40
20670;DHT22;10494;50.868;4.180;2023-06-14T10:01:52;32.30;42.30
20670;DHT22;10494;50.868;4.180;2023-06-14T10:04:22;30.20;43.10
20670;DHT22;10494;50.868;4.180;2023-06-14T10:06:48;30.50;45.40
20670;DHT22;10494;50.868;4.180;2023-06-14T10:09:15;29.90;45.20
20670;DHT22;10494;50.868;4.180;2023-06-14T10:11:42;28.10;46.50
20670;DHT22;10494;50.868;4.180;2023-06-14T10:14:12;27.40;49.50
20670;DHT22;10494;50.868;4.180;2023-06-14T10:16:57;28.40;48.60
20670;DHT22;10494;50.868;4.180;2023-06-14T10:22:45;28.60;46.50
20670;DHT22;10494;50.868;4.180;2023-06-14T10:25:33;28.60;46.00
20670;DHT22;10494;50.868;4.180;2023-06-14T10:28:20;29.60;45.70
20670;DHT22;10494;50.868;4.180;2023-06-14T10:33:36;30.00;43.50
20670;DHT22;10494;50.868;4.180;2023-06-14T10:36:30;30.40;42.10
20670;DHT22;10494;50.868;4.180;2023-06-14T10:39:07;30.10;42.10
20670;DHT22;10494;50.868;4.180;2023-06-14T10:41:40;29.00;45.00
20670;DHT22;10494;50.868;4.180;2023-06-14T10:46:55;29.50;43.00
20670;DHT22;10494;50.868;4.180;2023-06-14T10:49:45;28.60;46.00
20670;DHT22;10494;50.868;4.180;2023-06-14T10:52:13;29.40;43.00
20670;DHT22;10494;50.868;4.180;2023-06-14T10:55:15;30.20;42.90
20670;DHT22;10494;50.868;4.180;2023-06-14T10:57:53;31.00;42.00
20670;DHT22;10494;50.868;4.180;2023-06-14T11:00:25;31.60;40.30
20670;DHT22;10494;50.868;4.180;2023-06-14T11:05:29;32.00;38.80
20670;DHT22;10494;50.868;4.180;2023-06-14T11:07:58;32.10;38.60
20670;DHT22;10494;50.868;4.180;2023-06-14T11:10:41;31.60;37.60
20670;DHT22;10494;50.868;4.180;2023-06-14T11:13:07;30.10;39.70
20670;DHT22;10494;50.868;4.180;2023-06-14T11:15:35;29.20;43.00
20670;DHT22;10494;50.868;4.180;2023-06-14T11:18:06;28.10;42.90
20670;DHT22;10494;50.868;4.180;2023-06-14T11:20:34;29.20;42.90
20670;DHT22;10494;50.868;4.180;2023-06-14T11:23:01;27.80;43.50
20670;DHT22;10494;50.868;4.180;2023-06-14T11:25:27;27.60;45.40
20670;DHT22;10494;50.868;4.180;2023-06-14T11:27:54;28.30;44.00
20670;DHT22;10494;50.868;4.180;2023-06-14T11:30:20;29.00;44.00
20670;DHT22;10494;50.868;4.180;2023-06-14T11:32:47;29.20;41.70
20670;DHT22;10494;50.868;4.180;2023-06-14T11:35:13;29.30;41.90
20670;DHT22;10494;50.868;4.180;2023-06-14T11:37:48;29.70;41.80
20670;DHT22;10494;50.868;4.180;2023-06-14T11:40:17;29.90;41.30
20670;DHT22;10494;50.868;4.180;2023-06-14T11:42:46;30.00;42.50
20670;DHT22;10494;50.868;4.180;2023-06-14T11:45:12;29.30;41.90
20670;DHT22;10494;50.868;4.180;2023-06-14T11:47:39;29.50;41.70
20670;DHT22;10494;50.868;4.180;2023-06-14T11:50:07;29.30;41.70
20670;DHT22;10494;50.868;4.180;2023-06-14T11:52:36;27.90;42.40
20670;DHT22;10494;50.868;4.180;2023-06-14T11:55:03;27.10;44.40
20670;DHT22;10494;50.868;4.180;2023-06-14T11:57:35;27.70;45.20
20670;DHT22;10494;50.868;4.180;2023-06-14T12:00:06;28.00;43.20
20670;DHT22;10494;50.868;4.180;2023-06-14T12:02:42;28.30;42.90
20670;DHT22;10494;50.868;4.180;2023-06-14T12:05:08;28.50;42.80
20670;DHT22;10494;50.868;4.180;2023-06-14T12:07:37;28.80;42.10
20670;DHT22;10494;50.868;4.180;2023-06-14T12:10:08;28.30;41.00
20670;DHT22;10494;50.868;4.180;2023-06-14T12:12:39;27.30;42.50
20670;DHT22;10494;50.868;4.180;2023-06-14T12:15:11;27.40;43.60
20670;DHT22;10494;50.868;4.180;2023-06-14T12:17:38;27.80;43.40
20670;DHT22;10494;50.868;4.180;2023-06-14T12:20:11;28.40;43.30
20670;DHT22;10494;50.868;4.180;2023-06-14T12:22:37;28.70;43.10
20670;DHT22;10494;50.868;4.180;2023-06-14T12:25:04;29.00;41.90
20670;DHT22;10494;50.868;4.180;2023-06-14T12:27:31;29.00;41.70
20670;DHT22;10494;50.868;4.180;2023-06-14T12:30:03;29.00;41.90
20670;DHT22;10494;50.868;4.180;2023-06-14T12:32:32;29.20;42.50
20670;DHT22;10494;50.868;4.180;2023-06-14T12:35:01;29.40;41.70
20670;DHT22;10494;50.868;4.180;2023-06-14T12:37:29;28.80;41.00
20670;DHT22;10494;50.868;4.180;2023-06-14T12:39:55;27.60;43.00
20670;DHT22;10494;50.868;4.180;2023-06-14T12:42:21;27.00;43.40
20670;DHT22;10494;50.868;4.180;2023-06-14T12:44:46;26.80;44.40
20670;DHT22;10494;50.868;4.180;2023-06-14T12:47:12;27.30;44.80
20670;DHT22;10494;50.868;4.180;2023-06-14T12:49:39;27.80;44.20
20670;DHT22;10494;50.868;4.180;2023-06-14T12:52:05;28.30;43.70
20670;DHT22;10494;50.868;4.180;2023-06-14T12:54:31;28.70;43.10
20670;DHT22;10494;50.868;4.180;2023-06-14T12:56:59;28.60;41.40
20670;DHT22;10494;50.868;4.180;2023-06-14T12:59:31;27.80;41.80
20670;DHT22;10494;50.868;4.180;2023-06-14T13:02:09;27.50;42.70
20670;DHT22;10494;50.868;4.180;2023-06-14T13:04:35;27.40;43.00
20670;DHT22;10494;50.868;4.180;2023-06-14T13:07:01;27.00;43.30
20670;DHT22;10494;50.868;4.180;2023-06-14T13:09:27;26.90;43.80
20670;DHT22;10494;50.868;4.180;2023-06-14T13:11:52;27.30;44.20
20670;DHT22;10494;50.868;4.180;2023-06-14T13:14:18;27.70;44.10
20670;DHT22;10494;50.868;4.180;2023-06-14T13:16:44;28.20;42.60
20670;DHT22;10494;50.868;4.180;2023-06-14T13:19:10;28.60;41.60
20670;DHT22;10494;50.868;4.180;2023-06-14T13:21:36;29.00;41.20
20670;DHT22;10494;50.868;4.180;2023-06-14T13:24:02;29.30;42.10
20670;DHT22;10494;50.868;4.180;2023-06-14T13:26:28;28.80;41.10
20670;DHT22;10494;50.868;4.180;2023-06-14T13:28:53;28.80;42.00
20670;DHT22;10494;50.868;4.180;2023-06-14T13:31:19;29.10;41.70
20670;DHT22;10494;50.868;4.180;2023-06-14T13:33:45;29.30;40.60
20670;DHT22;10494;50.868;4.180;2023-06-14T13:36:11;29.30;41.00
20670;DHT22;10494;50.868;4.180;2023-06-14T13:38:37;29.60;41.10
20670;DHT22;10494;50.868;4.180;2023-06-14T13:41:03;28.60;40.70
20670;DHT22;10494;50.868;4.180;2023-06-14T13:43:29;28.00;42.50
20670;DHT22;10494;50.868;4.180;2023-06-14T13:45:55;28.40;41.90
20670;DHT22;10494;50.868;4.180;2023-06-14T13:48:21;27.60;41.60
20670;DHT22;10494;50.868;4.180;2023-06-14T13:50:47;27.30;42.40
20670;DHT22;10494;50.868;4.180;2023-06-14T13:53:13;27.30;42.90
20670;DHT22;10494;50.868;4.180;2023-06-14T13:55:39;27.60;43.30
20670;DHT22;10494;50.868;4.180;2023-06-14T13:58:05;28.00;43.50
20670;DHT22;10494;50.868;4.180;2023-06-14T14:00:31;28.50;41.10
20670;DHT22;10494;50.868;4.180;2023-06-14T14:02:58;28.70;40.60
20670;DHT22;10494;50.868;4.180;2023-06-14T14:05:25;28.80;39.50
20670;DHT22;10494;50.868;4.180;2023-06-14T14:07:55;29.10;39.20
20670;DHT22;10494;50.868;4.180;2023-06-14T14:10:23;29.40;39.60
20670;DHT22;10494;50.868;4.180;2023-06-14T14:12:50;29.60;39.90
20670;DHT22;10494;50.868;4.180;2023-06-14T14:15:16;28.80;40.50
20670;DHT22;10494;50.868;4.180;2023-06-14T14:17:42;29.10;41.60
20670;DHT22;10494;50.868;4.180;2023-06-14T14:20:08;29.30;40.30
20670;DHT22;10494;50.868;4.180;2023-06-14T14:22:34;29.10;40.00
20670;DHT22;10494;50.868;4.180;2023-06-14T14:25:00;29.20;39.80
20670;DHT22;10494;50.868;4.180;2023-06-14T14:27:25;29.30;39.80
20670;DHT22;10494;50.868;4.180;2023-06-14T14:29:51;29.10;40.20
20670;DHT22;10494;50.868;4.180;2023-06-14T14:32:17;29.00;40.30
20670;DHT22;10494;50.868;4.180;2023-06-14T14:34:42;29.20;40.50
20670;DHT22;10494;50.868;4.180;2023-06-14T14:37:08;28.70;41.20
20670;DHT22;10494;50.868;4.180;2023-06-14T14:39:33;28.90;40.90
20670;DHT22;10494;50.868;4.180;2023-06-14T14:42:00;29.40;39.70
20670;DHT22;10494;50.868;4.180;2023-06-14T14:44:25;28.90;38.70
20670;DHT22;10494;50.868;4.180;2023-06-14T14:46:51;28.10;39.50
20670;DHT22;10494;50.868;4.180;2023-06-14T14:49:16;27.50;39.80
20670;DHT22;10494;50.868;4.180;2023-06-14T14:51:42;26.90;41.00
20670;DHT22;10494;50.868;4.180;2023-06-14T14:54:08;27.20;41.00
20670;DHT22;10494;50.868;4.180;2023-06-14T14:56:33;27.60;40.50
20670;DHT22;10494;50.868;4.180;2023-06-14T14:59:00;27.70;40.70
20670;DHT22;10494;50.868;4.180;2023-06-14T15:01:26;27.30;39.70
20670;DHT22;10494;50.868;4.180;2023-06-14T15:03:52;27.60;40.50
20670;DHT22;10494;50.868;4.180;2023-06-14T15:06:17;28.10;39.90
20670;DHT22;10494;50.868;4.180;2023-06-14T15:08:43;28.30;39.20
20670;DHT22;10494;50.868;4.180;2023-06-14T15:11:09;28.50;39.70
20670;DHT22;10494;50.868;4.180;2023-06-14T15:13:34;28.80;39.00
20670;DHT22;10494;50.868;4.180;2023-06-14T15:16:00;28.70;38.30
20670;DHT22;10494;50.868;4.180;2023-06-14T15:18:26;28.30;38.20
20670;DHT22;10494;50.868;4.180;2023-06-14T15:20:52;27.60;38.70
20670;DHT22;10494;50.868;4.180;2023-06-14T15:23:17;27.30;40.00
20670;DHT22;10494;50.868;4.180;2023-06-14T15:25:45;26.90;39.60
20670;DHT22;10494;50.868;4.180;2023-06-14T15:28:13;27.40;40.60
20670;DHT22;10494;50.868;4.180;2023-06-14T15:30:38;27.80;39.20
20670;DHT22;10494;50.868;4.180;2023-06-14T15:33:04;28.20;38.80
20670;DHT22;10494;50.868;4.180;2023-06-14T15:35:30;28.20;38.50
20670;DHT22;10494;50.868;4.180;2023-06-14T15:37:55;27.90;39.00
20670;DHT22;10494;50.868;4.180;2023-06-14T15:40:21;28.10;39.20
20670;DHT22;10494;50.868;4.180;2023-06-14T15:42:46;28.20;38.70
20670;DHT22;10494;50.868;4.180;2023-06-14T15:45:12;27.70;39.20
20670;DHT22;10494;50.868;4.180;2023-06-14T15:47:39;27.40;40.10
20670;DHT22;10494;50.868;4.180;2023-06-14T15:50:05;27.00;39.30
20670;DHT22;10494;50.868;4.180;2023-06-14T15:52:33;26.90;39.80